Time;durP1;ratioP1;P1;durP2;ratioP2;P2;SDS_P1;SDS_P2;PMS_P1;PMS_P2;Temp;Humidity;BMP_temperature;BMP_pressure;BME280_temperature;BME280_humidity;BME280_pressure;Samples;Min_cycle;Max_cycle;Signal;HPM_P1;HPM_P2
2023/12/23 00:01:30;;;;;;;7.33;1.27;;;1.40;99.90;;;;;;4955765;28;20536;-85
2023/12/23 00:03:58;;;;;;;4.53;1.17;;;1.40;99.90;;;;;;4951100;28;20306;-84
2023/12/23 00:06:25;;;;;;;5.23;1.43;;;1.40;99.90;;;;;;4957065;28;20321;-85
2023/12/23 00:08:52;;;;;;;8.37;1.90;;;1.40;99.90;;;;;;4955636;28;20228;-84
2023/12/23 00:11:19;;;;;;;6.90;2.13;;;1.40;99.90;;;;;;4952670;28;20236;-84
2023/12/23 00:13:45;;;;;;;9.77;1.93;;;1.30;99.90;;;;;;4954880;28;20322;-85
2023/12/23 00:16:12;;;;;;;7.57;1.73;;;1.30;99.90;;;;;;4960062;28;20315;-84
2023/12/23 00:18:40;;;;;;;7.50;1.70;;;1.30;99.90;;;;;;4956537;28;20240;-85
2023/12/23 00:21:08;;;;;;;8.10;1.90;;;1.30;99.90;;;;;;4957679;28;20964;-84
2023/12/23 00:23:35;;;;;;;9.03;1.47;;;1.30;99.90;;;;;;4962733;28;20224;-84
2023/12/23 00:26:02;;;;;;;9.23;1.40;;;1.30;99.90;;;;;;4960461;28;20236;-85
2023/12/23 00:28:28;;;;;;;11.07;2.03;;;1.20;99.90;;;;;;4965132;28;20322;-85
2023/12/23 00:30:55;;;;;;;9.83;2.33;;;1.20;99.90;;;;;;4963008;28;20821;-85
2023/12/23 00:33:22;;;;;;;8.67;1.60;;;1.20;99.90;;;;;;4958088;28;20223;-82
2023/12/23 00:35:50;;;;;;;7.57;2.70;;;1.20;99.90;;;;;;4964683;28;20240;-81
2023/12/23 00:38:17;;;;;;;13.17;1.97;;;1.20;99.90;;;;;;4959104;28;20224;-84
2023/12/23 00:40:44;;;;;;;10.20;2.47;;;1.20;99.90;;;;;;4962685;28;20315;-83
2023/12/23 00:43:11;;;;;;;17.03;2.47;;;1.20;99.90;;;;;;4964164;28;20252;-83
2023/12/23 00:45:36;;;;;;;9.57;2.13;;;1.20;99.90;;;;;;4959625;28;20256;-83
2023/12/23 00:48:04;;;;;;;7.27;1.73;;;1.20;99.90;;;;;;4963478;28;20755;-84
2023/12/23 00:50:30;;;;;;;12.87;2.23;;;1.30;99.90;;;;;;4963246;28;20607;-84
2023/12/23 00:53:01;;;;;;;10.13;1.93;;;1.30;99.90;;;;;;4964324;28;20255;-84
2023/12/23 00:55:28;;;;;;;7.83;1.80;;;1.20;99.90;;;;;;4958688;28;20695;-84
2023/12/23 00:57:55;;;;;;;8.70;1.60;;;1.20;99.90;;;;;;4962837;28;20490;-84
2023/12/23 01:00:22;;;;;;;6.20;1.60;;;1.20;99.90;;;;;;4961933;28;20624;-82
2023/12/23 01:02:49;;;;;;;7.00;1.43;;;1.20;99.90;;;;;;4969181;28;20290;-82
2023/12/23 01:05:16;;;;;;;5.23;1.53;;;1.20;99.90;;;;;;4975140;28;20772;-82
2023/12/23 01:07:43;;;;;;;6.70;1.40;;;1.20;99.90;;;;;;4962425;28;20581;-83
2023/12/23 01:10:11;;;;;;;9.73;1.57;;;1.20;99.90;;;;;;4956963;28;20231;-82
2023/12/23 01:12:39;;;;;;;9.83;1.53;;;1.20;99.90;;;;;;4958894;28;20738;-82
2023/12/23 01:15:07;;;;;;;10.70;2.00;;;1.20;99.90;;;;;;4955409;28;20359;-83
2023/12/23 01:17:34;;;;;;;7.10;1.70;;;1.20;99.90;;;;;;4962514;28;20521;-82
2023/12/23 01:20:02;;;;;;;9.17;1.80;;;1.20;99.90;;;;;;4960813;28;20237;-82
2023/12/23 01:22:29;;;;;;;11.60;2.10;;;1.10;99.90;;;;;;4957630;28;20270;-82
2023/12/23 01:24:56;;;;;;;10.17;2.30;;;1.10;99.90;;;;;;4962060;28;20275;-82
2023/12/23 01:27:24;;;;;;;10.70;2.07;;;1.10;99.90;;;;;;4962698;28;20235;-83
2023/12/23 01:29:51;;;;;;;7.00;1.70;;;1.10;99.90;;;;;;4963448;28;20233;-83
2023/12/23 01:32:18;;;;;;;7.53;1.60;;;1.10;99.90;;;;;;4957968;28;20217;-83
2023/12/23 01:34:45;;;;;;;9.87;1.77;;;1.10;99.90;;;;;;4965639;28;20228;-83
2023/12/23 01:37:12;;;;;;;12.00;2.00;;;1.10;99.90;;;;;;4979594;28;20752;-84
2023/12/23 01:39:39;;;;;;;6.43;1.43;;;1.10;99.90;;;;;;4961135;28;20224;-83
2023/12/23 01:42:06;;;;;;;11.00;1.90;;;1.10;99.90;;;;;;4969181;28;20224;-83
2023/12/23 01:44:34;;;;;;;8.57;1.63;;;1.10;99.90;;;;;;4957839;28;20234;-83
2023/12/23 01:47:05;;;;;;;7.03;2.13;;;1.10;99.90;;;;;;4957735;28;20737;-84
2023/12/23 01:49:32;;;;;;;8.97;2.23;;;1.10;99.90;;;;;;4958311;28;20226;-84
2023/12/23 01:52:00;;;;;;;8.80;2.20;;;1.10;99.90;;;;;;4959135;28;20301;-83
2023/12/23 01:54:28;;;;;;;8.80;1.30;;;1.10;99.90;;;;;;4991470;28;20226;-83
2023/12/23 01:56:55;;;;;;;6.13;1.90;;;1.10;99.90;;;;;;4949478;28;21985;-83
2023/12/23 01:59:22;;;;;;;8.20;2.27;;;1.20;99.90;;;;;;4958323;28;20216;-83
2023/12/23 02:01:52;;;;;;;8.10;2.03;;;1.20;99.90;;;;;;4958853;28;20233;-83
2023/12/23 02:04:19;;;;;;;10.20;1.80;;;1.30;99.90;;;;;;4962725;28;20317;-82
2023/12/23 02:06:46;;;;;;;8.13;2.20;;;1.30;99.90;;;;;;4959069;28;20580;-82
2023/12/23 02:09:13;;;;;;;9.73;1.80;;;1.40;99.90;;;;;;4978487;28;20336;-82
2023/12/23 02:11:46;;;;;;;9.40;1.80;;;1.40;99.90;;;;;;4958601;28;20252;-82
2023/12/23 02:14:20;;;;;;;8.00;1.90;;;1.50;99.90;;;;;;4963386;28;20661;-83
2023/12/23 02:16:47;;;;;;;5.70;1.47;;;1.50;99.90;;;;;;4964219;28;20250;-83
2023/12/23 02:19:15;;;;;;;7.67;1.87;;;1.50;99.90;;;;;;4960303;28;20313;-82
2023/12/23 02:21:43;;;;;;;7.87;1.60;;;1.60;99.90;;;;;;4956509;28;20319;-83
2023/12/23 02:24:10;;;;;;;11.03;1.83;;;1.60;99.90;;;;;;4961739;28;20226;-84
2023/12/23 02:26:39;;;;;;;8.33;1.67;;;1.60;99.90;;;;;;4958697;28;20306;-83
2023/12/23 02:29:07;;;;;;;8.00;2.13;;;1.70;99.90;;;;;;4958310;28;20227;-82
2023/12/23 02:31:34;;;;;;;16.67;2.23;;;1.70;99.90;;;;;;4958831;28;20688;-83
2023/12/23 02:34:01;;;;;;;10.03;1.93;;;1.70;99.90;;;;;;4987347;28;20255;-82
2023/12/23 02:36:28;;;;;;;9.83;1.97;;;1.70;99.90;;;;;;4955516;28;20231;-82
2023/12/23 02:38:57;;;;;;;6.30;1.63;;;1.80;99.90;;;;;;4964250;28;20247;-82
2023/12/23 02:41:25;;;;;;;8.20;1.90;;;1.80;99.90;;;;;;4965146;28;20246;-82
2023/12/23 02:43:52;;;;;;;13.03;2.17;;;1.80;99.90;;;;;;4962009;28;20505;-82
2023/12/23 02:46:18;;;;;;;7.43;1.50;;;1.90;99.90;;;;;;4950708;28;20594;-82
2023/12/23 02:48:45;;;;;;;9.00;2.13;;;1.90;99.90;;;;;;4963286;28;20254;-82
2023/12/23 02:51:12;;;;;;;10.37;1.90;;;2.00;99.90;;;;;;4962165;28;20270;-81
2023/12/23 02:53:39;;;;;;;9.67;2.17;;;2.00;99.90;;;;;;4960139;28;20310;-82
2023/12/23 02:56:07;;;;;;;7.83;1.67;;;2.00;99.90;;;;;;4960895;28;20275;-82
2023/12/23 02:58:35;;;;;;;6.50;1.30;;;2.00;99.90;;;;;;4966420;28;20218;-83
2023/12/23 03:01:07;;;;;;;6.60;1.30;;;2.10;99.90;;;;;;4963290;28;20645;-82
2023/12/23 03:03:33;;;;;;;9.43;1.73;;;2.10;99.90;;;;;;4952741;28;20864;-82
2023/12/23 03:06:00;;;;;;;9.97;1.60;;;2.10;99.90;;;;;;4966782;28;20216;-82
2023/12/23 03:08:27;;;;;;;10.73;1.77;;;2.10;99.90;;;;;;4967623;28;20231;-82
2023/12/23 03:10:54;;;;;;;8.57;1.73;;;2.10;99.90;;;;;;4950066;28;20899;-81
2023/12/23 03:13:22;;;;;;;8.73;1.73;;;2.10;99.90;;;;;;4946973;28;20228;-82
2023/12/23 03:15:48;;;;;;;12.23;2.63;;;2.10;99.90;;;;;;4959002;28;20235;-82
2023/12/23 03:18:16;;;;;;;9.13;1.90;;;2.20;99.90;;;;;;4957650;28;20259;-82
2023/12/23 03:20:43;;;;;;;9.00;2.00;;;2.20;99.90;;;;;;4956218;28;20313;-82
2023/12/23 03:23:10;;;;;;;9.73;1.90;;;2.20;99.90;;;;;;4956847;28;20239;-83
2023/12/23 03:25:38;;;;;;;12.67;2.00;;;2.10;99.90;;;;;;4957056;28;20480;-84
2023/12/23 03:28:06;;;;;;;10.00;2.30;;;2.10;99.90;;;;;;4957123;28;20781;-84
2023/12/23 03:30:34;;;;;;;8.93;1.60;;;2.10;99.90;;;;;;4960351;28;20226;-85
2023/12/23 03:33:01;;;;;;;10.17;1.70;;;2.10;99.90;;;;;;4957740;28;20233;-85
2023/12/23 03:35:27;;;;;;;9.37;1.70;;;2.10;99.90;;;;;;4957458;28;20231;-86
2023/12/23 03:37:54;;;;;;;10.63;3.10;;;2.10;99.90;;;;;;4950280;28;20315;-86
2023/12/23 03:40:21;;;;;;;10.37;2.53;;;2.00;99.90;;;;;;4951847;28;20258;-86
2023/12/23 03:42:48;;;;;;;9.77;1.80;;;2.00;99.90;;;;;;4946962;28;20606;-85
2023/12/23 03:45:16;;;;;;;8.97;1.90;;;2.00;99.90;;;;;;4957615;28;20321;-86
2023/12/23 03:47:45;;;;;;;10.40;1.80;;;2.00;99.90;;;;;;4954089;28;20229;-85
2023/12/23 03:50:12;;;;;;;11.27;1.90;;;2.00;99.90;;;;;;4952459;28;20225;-85
2023/12/23 03:52:39;;;;;;;10.03;1.93;;;2.10;99.90;;;;;;4948496;28;20656;-86
2023/12/23 03:55:07;;;;;;;9.93;1.60;;;2.00;99.90;;;;;;4945851;28;20635;-86
2023/12/23 03:57:34;;;;;;;7.07;1.53;;;2.00;99.90;;;;;;4950529;28;20232;-86
2023/12/23 04:00:01;;;;;;;7.50;2.07;;;2.10;99.90;;;;;;4951210;28;20257;-85
2023/12/23 04:02:28;;;;;;;7.63;1.60;;;2.10;99.90;;;;;;4981560;28;20301;-85
2023/12/23 04:04:57;;;;;;;8.57;1.87;;;2.10;99.90;;;;;;4950528;28;20670;-85
2023/12/23 04:07:23;;;;;;;5.40;1.20;;;2.20;99.90;;;;;;4951411;28;20219;-85
2023/12/23 04:09:50;;;;;;;7.13;1.40;;;2.20;99.90;;;;;;4939452;28;20414;-85
2023/12/23 04:12:17;;;;;;;9.17;1.10;;;2.20;99.90;;;;;;4969642;28;20803;-85
2023/12/23 04:14:44;;;;;;;8.50;2.00;;;2.30;99.90;;;;;;4961533;28;20219;-85
2023/12/23 04:17:11;;;;;;;6.20;1.43;;;2.30;99.90;;;;;;4991329;28;20223;-86
2023/12/23 04:19:38;;;;;;;10.07;1.47;;;2.30;99.90;;;;;;4962736;28;20244;-85
2023/12/23 04:22:07;;;;;;;8.13;1.33;;;2.30;99.90;;;;;;4957013;28;20216;-85
2023/12/23 04:24:33;;;;;;;7.87;1.40;;;2.30;99.90;;;;;;4961710;28;20314;-85
2023/12/23 04:27:00;;;;;;;12.50;1.30;;;2.30;99.90;;;;;;4959579;28;20607;-85
2023/12/23 04:29:29;;;;;;;7.77;1.30;;;2.30;99.90;;;;;;4951978;28;20285;-84
2023/12/23 04:31:56;;;;;;;7.13;1.30;;;2.30;99.90;;;;;;4949571;28;20677;-84
2023/12/23 04:34:23;;;;;;;7.13;1.20;;;2.30;99.90;;;;;;4951422;28;20252;-84
2023/12/23 04:36:50;;;;;;;3.30;0.80;;;2.20;99.90;;;;;;4952007;28;20227;-85
2023/12/23 04:39:18;;;;;;;5.63;1.10;;;2.20;99.90;;;;;;4950672;28;21073;-85
2023/12/23 04:41:48;;;;;;;3.70;0.93;;;2.20;99.90;;;;;;4951977;28;20323;-84
2023/12/23 04:44:15;;;;;;;3.20;0.97;;;2.10;99.90;;;;;;4982775;28;20250;-85
2023/12/23 04:46:43;;;;;;;6.07;1.20;;;2.10;99.90;;;;;;4951114;28;20226;-84
2023/12/23 04:49:10;;;;;;;6.27;1.00;;;2.10;99.90;;;;;;4942022;28;20327;-84
2023/12/23 04:51:37;;;;;;;5.93;0.90;;;2.00;99.90;;;;;;4957379;28;20308;-85
2023/12/23 04:54:04;;;;;;;7.13;1.10;;;2.00;99.90;;;;;;4983830;28;20263;-84
2023/12/23 04:56:32;;;;;;;5.20;1.00;;;2.00;99.90;;;;;;4950484;28;20725;-85
2023/12/23 04:59:00;;;;;;;4.83;1.10;;;1.90;99.90;;;;;;4949764;28;20232;-85
2023/12/23 05:01:27;;;;;;;6.63;1.00;;;1.90;99.90;;;;;;4951429;28;20255;-85
2023/12/23 05:03:54;;;;;;;4.77;1.40;;;1.90;99.90;;;;;;4948806;28;20228;-85
2023/12/23 05:06:21;;;;;;;4.43;1.20;;;1.90;99.90;;;;;;4947498;28;20220;-84
2023/12/23 05:08:48;;;;;;;4.00;1.10;;;1.90;99.90;;;;;;4956453;28;20285;-84
2023/12/23 05:11:15;;;;;;;10.90;1.43;;;1.90;99.90;;;;;;4965367;28;20220;-84
2023/12/23 05:13:43;;;;;;;6.00;1.20;;;1.90;99.90;;;;;;4954345;28;20230;-84
2023/12/23 05:16:10;;;;;;;2.37;0.80;;;2.00;99.90;;;;;;4946142;28;20233;-84
2023/12/23 05:18:36;;;;;;;10.10;1.50;;;2.00;99.90;;;;;;4950726;28;20281;-84
2023/12/23 05:21:03;;;;;;;6.23;1.30;;;2.00;99.90;;;;;;4953889;28;20775;-83
2023/12/23 05:23:30;;;;;;;7.10;1.10;;;2.00;99.90;;;;;;4934626;28;20491;-84
2023/12/23 05:25:57;;;;;;;5.63;1.37;;;2.10;99.90;;;;;;4950222;28;20315;-84
2023/12/23 05:28:24;;;;;;;5.53;1.43;;;2.10;99.90;;;;;;4967049;28;20307;-85
2023/12/23 05:30:52;;;;;;;4.50;1.00;;;2.10;99.90;;;;;;4950918;28;20222;-84
2023/12/23 05:33:20;;;;;;;4.90;1.37;;;2.10;99.90;;;;;;4979736;28;20366;-84
2023/12/23 05:35:47;;;;;;;5.27;1.13;;;2.10;99.90;;;;;;4951042;28;20233;-84
2023/12/23 05:38:14;;;;;;;4.27;1.07;;;2.10;99.90;;;;;;4955470;28;20246;-84
2023/12/23 05:40:41;;;;;;;5.40;1.50;;;2.10;99.90;;;;;;4950381;28;20313;-84
2023/12/23 05:43:08;;;;;;;6.93;1.30;;;2.10;99.90;;;;;;4948786;28;20717;-84
2023/12/23 05:45:35;;;;;;;5.80;1.20;;;2.20;99.90;;;;;;4980959;28;20470;-84
2023/12/23 05:48:04;;;;;;;6.87;1.00;;;2.20;99.90;;;;;;4949971;28;20776;-85
2023/12/23 05:50:31;;;;;;;4.00;1.40;;;2.20;99.90;;;;;;4951199;28;20223;-84
2023/12/23 05:52:58;;;;;;;5.47;1.27;;;2.20;99.90;;;;;;4949742;28;20252;-84
2023/12/23 05:55:25;;;;;;;6.57;1.03;;;2.20;99.90;;;;;;4953830;28;20224;-85
2023/12/23 05:57:52;;;;;;;6.80;1.53;;;2.20;99.90;;;;;;4951280;28;20224;-84
2023/12/23 06:00:20;;;;;;;8.10;1.57;;;2.20;99.90;;;;;;4956348;28;20219;-85
2023/12/23 06:02:47;;;;;;;4.53;0.90;;;2.20;99.90;;;;;;4951480;28;20521;-84
2023/12/23 06:05:16;;;;;;;3.17;0.87;;;2.20;99.90;;;;;;4949888;28;20946;-86
2023/12/23 06:07:42;;;;;;;4.57;1.20;;;2.20;99.90;;;;;;4950863;28;20227;-84
2023/12/23 06:10:09;;;;;;;6.27;1.33;;;2.20;99.90;;;;;;4951410;28;20250;-83
2023/12/23 06:12:36;;;;;;;5.13;1.27;;;2.20;99.90;;;;;;4950445;28;20324;-84
2023/12/23 06:15:03;;;;;;;5.07;1.43;;;2.20;99.90;;;;;;4951361;28;20318;-84
2023/12/23 06:17:30;;;;;;;6.90;1.20;;;2.20;99.90;;;;;;4963802;28;20240;-86
2023/12/23 06:19:57;;;;;;;5.53;1.17;;;2.20;99.90;;;;;;4945921;28;20238;-86
2023/12/23 06:22:25;;;;;;;6.20;1.77;;;2.20;99.90;;;;;;4949536;28;20227;-86
2023/12/23 06:24:52;;;;;;;6.20;1.30;;;2.10;99.90;;;;;;4951476;28;20229;-86
2023/12/23 06:27:19;;;;;;;6.13;1.20;;;2.20;99.90;;;;;;4947172;28;20714;-85
2023/12/23 06:29:45;;;;;;;12.07;1.57;;;2.10;99.90;;;;;;4951060;28;20622;-85
2023/12/23 06:32:12;;;;;;;6.73;1.40;;;2.10;99.90;;;;;;4947433;28;20234;-84
2023/12/23 06:34:39;;;;;;;4.67;1.27;;;2.10;99.90;;;;;;4951161;28;20305;-85
2023/12/23 06:37:06;;;;;;;3.57;1.07;;;2.10;99.90;;;;;;4955455;28;20247;-82
2023/12/23 06:39:34;;;;;;;4.97;1.10;;;2.10;99.90;;;;;;4956842;28;20234;-83
2023/12/23 06:42:01;;;;;;;5.27;1.30;;;2.10;99.90;;;;;;4957062;28;20290;-83
2023/12/23 06:44:27;;;;;;;11.47;1.73;;;2.00;99.90;;;;;;4958926;28;20220;-84
2023/12/23 06:46:54;;;;;;;4.03;0.90;;;1.90;99.90;;;;;;4958264;28;20253;-83
2023/12/23 06:49:21;;;;;;;12.10;1.57;;;1.90;99.90;;;;;;4951208;28;20596;-84
2023/12/23 06:51:48;;;;;;;5.47;1.37;;;1.80;99.90;;;;;;4955032;28;20231;-84
2023/12/23 06:54:14;;;;;;;18.23;2.77;;;1.70;99.90;;;;;;4955782;28;20324;-84
2023/12/23 06:56:42;;;;;;;11.03;1.40;;;1.70;99.90;;;;;;4951985;28;20388;-83
2023/12/23 06:59:12;;;;;;;2.30;0.70;;;1.60;99.90;;;;;;4965596;28;20517;-83
2023/12/23 07:01:40;;;;;;;20.53;1.83;;;1.50;99.90;;;;;;4935177;28;20226;-84
2023/12/23 07:04:08;;;;;;;4.63;0.87;;;1.50;99.90;;;;;;4966891;28;20236;-84
2023/12/23 07:06:35;;;;;;;6.83;0.97;;;1.40;99.90;;;;;;4990642;28;20242;-84
2023/12/23 07:09:02;;;;;;;8.30;1.00;;;1.40;99.90;;;;;;4959669;28;20377;-84
2023/12/23 07:11:29;;;;;;;114.00;7.17;;;1.30;99.90;;;;;;4990478;28;20224;-84
2023/12/23 07:13:57;;;;;;;4.27;0.63;;;1.30;99.90;;;;;;4961055;28;20219;-84
2023/12/23 07:16:23;;;;;;;19.17;1.43;;;1.30;99.90;;;;;;4958228;28;20232;-84
2023/12/23 07:18:50;;;;;;;3.07;0.73;;;1.20;99.90;;;;;;4991042;28;20232;-84
2023/12/23 07:21:17;;;;;;;14.60;1.43;;;1.20;99.90;;;;;;4989029;28;20660;-84
2023/12/23 07:23:44;;;;;;;117.00;7.50;;;1.20;99.90;;;;;;4958349;28;20229;-83
2023/12/23 07:26:12;;;;;;;2.33;0.70;;;1.10;99.90;;;;;;4960425;28;20753;-85
2023/12/23 07:28:39;;;;;;;31.50;3.03;;;1.10;99.90;;;;;;4961655;28;20223;-83
2023/12/23 07:31:07;;;;;;;8.83;1.10;;;1.10;99.90;;;;;;4993868;28;20330;-83
2023/12/23 07:33:34;;;;;;;112.07;6.83;;;1.10;99.90;;;;;;4999266;28;20250;-82
2023/12/23 07:36:01;;;;;;;156.70;8.60;;;1.10;99.90;;;;;;4970929;28;20645;-82
2023/12/23 07:38:27;;;;;;;74.97;5.60;;;1.10;99.90;;;;;;4964393;28;20327;-81
2023/12/23 07:40:54;;;;;;;103.27;6.63;;;1.10;99.90;;;;;;4976198;28;20527;-82
2023/12/23 07:43:22;;;;;;;222.97;12.77;;;1.10;99.90;;;;;;4970541;28;20326;-81
2023/12/23 07:45:50;;;;;;;24.13;2.60;;;1.10;99.90;;;;;;4967858;28;20230;-80
2023/12/23 07:48:18;;;;;;;250.60;14.33;;;1.10;99.90;;;;;;4963452;28;20468;-80
2023/12/23 07:50:45;;;;;;;204.77;10.63;;;1.10;99.90;;;;;;4968206;28;20727;-80
2023/12/23 07:53:11;;;;;;;63.83;4.53;;;1.10;99.90;;;;;;4964741;28;20246;-80
2023/12/23 07:55:39;;;;;;;125.87;8.50;;;1.10;99.90;;;;;;4969508;28;20253;-80
2023/12/23 07:58:06;;;;;;;129.67;8.47;;;1.10;99.90;;;;;;4982704;28;20228;-80
2023/12/23 08:00:33;;;;;;;4.07;1.63;;;1.10;99.90;;;;;;4965230;28;20232;-80
2023/12/23 08:02:59;;;;;;;82.20;6.20;;;1.10;99.90;;;;;;4968226;28;20304;-80
2023/12/23 08:05:31;;;;;;;24.93;2.40;;;1.10;99.90;;;;;;5001957;28;20227;-80
2023/12/23 08:07:58;;;;;;;6.60;1.37;;;1.10;99.90;;;;;;4967495;28;20236;-81
2023/12/23 08:10:25;;;;;;;2.73;1.40;;;1.10;99.90;;;;;;4965377;28;20256;-81
2023/12/23 08:12:51;;;;;;;27.80;3.30;;;1.10;99.90;;;;;;4967823;28;20295;-80
2023/12/23 08:15:18;;;;;;;112.17;7.47;;;1.10;99.90;;;;;;4966825;28;20273;-81
2023/12/23 08:17:45;;;;;;;25.00;3.07;;;1.10;99.90;;;;;;4964332;28;20371;-81
2023/12/23 08:20:12;;;;;;;203.10;12.47;;;1.10;99.90;;;;;;4967220;28;20216;-81
2023/12/23 08:22:41;;;;;;;4.60;2.33;;;1.10;99.90;;;;;;4968849;28;20235;-81
2023/12/23 08:25:08;;;;;;;121.50;7.73;;;1.10;99.90;;;;;;4964575;28;20238;-81
2023/12/23 08:27:35;;;;;;;114.00;7.73;;;1.10;99.90;;;;;;4966300;28;20229;-80
2023/12/23 08:30:02;;;;;;;104.70;7.90;;;1.10;99.90;;;;;;4967224;28;20343;-81
2023/12/23 08:32:29;;;;;;;15.27;2.10;;;1.10;99.90;;;;;;4958783;28;20227;-81
2023/12/23 08:34:55;;;;;;;68.80;6.63;;;1.10;99.90;;;;;;4967370;28;20430;-81
2023/12/23 08:37:22;;;;;;;6.83;1.70;;;1.00;99.90;;;;;;4965339;28;20321;-80
2023/12/23 08:39:51;;;;;;;396.10;24.80;;;1.10;99.90;;;;;;4964096;28;20237;-82
2023/12/23 08:42:17;;;;;;;256.27;16.70;;;1.10;99.90;;;;;;4967202;28;20219;-80
2023/12/23 08:44:44;;;;;;;582.73;31.33;;;1.10;99.90;;;;;;4966686;28;20674;-80
2023/12/23 08:47:12;;;;;;;454.50;30.67;;;1.10;99.90;;;;;;4963561;28;20784;-81
2023/12/23 08:49:39;;;;;;;71.63;5.90;;;1.10;99.90;;;;;;4968564;28;20231;-81
2023/12/23 08:52:07;;;;;;;114.63;6.60;;;1.10;99.90;;;;;;4964092;28;20226;-81
2023/12/23 08:54:33;;;;;;;152.90;9.60;;;1.10;99.90;;;;;;4996412;28;20215;-81
2023/12/23 08:57:02;;;;;;;460.30;26.10;;;1.10;99.90;;;;;;4968438;28;20707;-81
2023/12/23 08:59:28;;;;;;;4.83;1.40;;;1.10;99.90;;;;;;4971891;28;20767;-81
2023/12/23 09:01:55;;;;;;;665.67;43.70;;;1.10;99.90;;;;;;4967891;28;20271;-80
2023/12/23 09:04:22;;;;;;;76.67;5.07;;;1.10;99.90;;;;;;4964156;28;20341;-81
2023/12/23 09:06:49;;;;;;;358.00;20.47;;;1.10;99.90;;;;;;4968345;28;20256;-81
2023/12/23 09:09:15;;;;;;;296.03;17.13;;;1.10;99.90;;;;;;4965097;28;20230;-81
2023/12/23 09:11:43;;;;;;;10.83;1.83;;;1.10;99.90;;;;;;4981254;28;20241;-81
2023/12/23 09:14:12;;;;;;;7.03;2.50;;;1.20;99.90;;;;;;4981171;28;20226;-81
2023/12/23 09:16:39;;;;;;;30.07;3.47;;;1.10;99.90;;;;;;4966872;28;20258;-81
2023/12/23 09:19:06;;;;;;;275.80;14.67;;;1.20;99.90;;;;;;4968265;28;20235;-82
2023/12/23 09:21:33;;;;;;;31.43;4.53;;;1.20;99.90;;;;;;4960626;28;20230;-82
2023/12/23 09:24:00;;;;;;;71.77;5.20;;;1.20;99.90;;;;;;4959616;28;20223;-81
2023/12/23 09:26:27;;;;;;;65.80;5.77;;;1.20;99.90;;;;;;4962442;28;20236;-81
2023/12/23 09:28:53;;;;;;;109.67;7.80;;;1.20;99.90;;;;;;4962900;28;20219;-81
2023/12/23 09:31:21;;;;;;;76.47;7.17;;;1.20;99.90;;;;;;4960050;28;20248;-81
2023/12/23 09:33:48;;;;;;;117.93;8.33;;;1.20;99.90;;;;;;4967301;28;20705;-86
2023/12/23 09:36:15;;;;;;;120.10;9.37;;;1.20;99.90;;;;;;4964206;28;20304;-86
2023/12/23 09:38:42;;;;;;;32.07;4.83;;;1.30;99.90;;;;;;4955055;28;20238;-87
2023/12/23 09:41:08;;;;;;;34.83;5.10;;;1.30;99.90;;;;;;4987566;28;20324;-87
2023/12/23 09:43:35;;;;;;;6.27;4.27;;;1.30;99.90;;;;;;4973769;28;20601;-86
2023/12/23 09:46:04;;;;;;;26.43;6.40;;;1.30;99.90;;;;;;4960531;28;20395;-88
2023/12/23 09:48:33;;;;;;;94.43;12.03;;;1.30;99.90;;;;;;4960305;28;20265;-87
2023/12/23 09:50:59;;;;;;;73.73;8.60;;;1.30;99.90;;;;;;4958900;28;20780;-87
2023/12/23 09:53:28;;;;;;;13.53;6.37;;;1.40;99.90;;;;;;4961695;28;20226;-88
2023/12/23 09:55:55;;;;;;;9.90;5.23;;;1.40;99.90;;;;;;4957510;28;20227;-88
2023/12/23 09:58:21;;;;;;;12.77;6.30;;;1.40;99.90;;;;;;4956954;28;20601;-87
2023/12/23 10:00:48;;;;;;;35.83;6.50;;;1.40;99.90;;;;;;4967523;28;20230;-86
2023/12/23 10:03:15;;;;;;;11.30;5.47;;;1.40;99.90;;;;;;4961329;28;20219;-87
2023/12/23 10:05:44;;;;;;;6.30;5.60;;;1.40;99.90;;;;;;4967082;28;20234;-86
2023/12/23 10:08:11;;;;;;;7.97;5.60;;;1.50;99.90;;;;;;5000193;28;20232;-88
2023/12/23 10:10:37;;;;;;;8.83;5.73;;;1.50;99.90;;;;;;4959340;28;20239;-89
2023/12/23 10:13:04;;;;;;;21.07;7.33;;;1.50;99.90;;;;;;4961970;28;20223;-88
2023/12/23 10:15:32;;;;;;;11.10;6.83;;;1.50;99.90;;;;;;4967553;28;20305;-89
2023/12/23 10:18:03;;;;;;;97.60;10.47;;;1.50;99.90;;;;;;4968922;28;20230;-90
2023/12/23 10:20:29;;;;;;;13.00;9.03;;;1.50;99.90;;;;;;4962964;28;20307;-89
2023/12/23 10:22:57;;;;;;;306.27;22.93;;;1.50;99.90;;;;;;4961634;28;20319;-90
2023/12/23 10:25:24;;;;;;;246.90;19.53;;;1.60;99.90;;;;;;4957267;28;20306;-89
2023/12/23 10:27:54;;;;;;;28.90;7.60;;;1.60;99.90;;;;;;4968992;28;20256;-90
2023/12/23 10:30:25;;;;;;;9.57;6.30;;;1.60;99.90;;;;;;4961010;28;20223;-90
2023/12/23 10:32:59;;;;;;;13.53;6.17;;;1.60;99.90;;;;;;4965207;28;20233;-90
2023/12/23 10:35:28;;;;;;;10.63;6.10;;;1.60;99.90;;;;;;4965070;28;20234;-90
2023/12/23 10:38:02;;;;;;;17.30;6.50;;;1.60;99.90;;;;;;4967310;28;20780;-89
2023/12/23 10:40:30;;;;;;;11.07;5.80;;;1.60;99.90;;;;;;4959900;28;20224;-90
2023/12/23 10:43:00;;;;;;;7.20;4.80;;;1.70;99.90;;;;;;4963925;28;20238;-90
2023/12/23 10:45:27;;;;;;;9.27;4.87;;;1.70;99.90;;;;;;4959104;28;20761;-90
2023/12/23 10:47:54;;;;;;;11.30;4.63;;;1.70;99.90;;;;;;4963813;28;20315;-82
2023/12/23 10:50:21;;;;;;;6.37;3.57;;;1.70;99.90;;;;;;4961412;28;20231;-82
2023/12/23 10:52:48;;;;;;;24.30;4.87;;;1.70;99.90;;;;;;4963944;28;20233;-82
2023/12/23 10:55:17;;;;;;;34.50;4.60;;;1.70;99.90;;;;;;4965382;28;20267;-81
2023/12/23 10:57:48;;;;;;;16.93;3.63;;;1.70;99.90;;;;;;4960816;28;20272;-80
2023/12/23 11:00:15;;;;;;;12.00;2.93;;;1.80;99.90;;;;;;4972182;28;20318;-83
2023/12/23 11:02:43;;;;;;;11.50;3.90;;;1.80;99.90;;;;;;4964473;28;20242;-82
2023/12/23 11:05:12;;;;;;;11.40;3.10;;;1.80;99.90;;;;;;4962196;28;20250;-82
2023/12/23 11:07:49;;;;;;;19.33;3.73;;;1.80;99.90;;;;;;4966426;28;20228;-82
2023/12/23 11:10:18;;;;;;;27.07;3.80;;;1.80;99.90;;;;;;4975494;28;20349;-82
2023/12/23 11:12:44;;;;;;;3.53;2.30;;;1.90;99.90;;;;;;4965083;28;20228;-82
2023/12/23 11:15:12;;;;;;;5.57;2.70;;;1.90;99.90;;;;;;4969812;28;20624;-82
2023/12/23 11:17:43;;;;;;;7.90;2.97;;;1.90;99.90;;;;;;4963458;28;20247;-83
2023/12/23 11:20:43;;;;;;;3.63;2.90;;;1.90;99.90;;;;;;4961506;28;20238;-83
2023/12/23 11:23:31;;;;;;;49.50;4.97;;;2.00;99.90;;;;;;4963106;28;20260;-82
2023/12/23 11:26:00;;;;;;;9.57;3.20;;;2.00;99.90;;;;;;4993813;28;20229;-82
2023/12/23 11:28:28;;;;;;;5.57;3.10;;;2.10;99.90;;;;;;4961123;28;20325;-82
2023/12/23 11:30:56;;;;;;;4.53;3.27;;;2.10;99.90;;;;;;4985993;28;20321;-83
2023/12/23 11:33:24;;;;;;;6.07;3.53;;;2.10;99.90;;;;;;4962439;28;20232;-82
2023/12/23 11:35:52;;;;;;;4.97;2.97;;;2.20;99.90;;;;;;4979861;28;20235;-82
2023/12/23 11:38:20;;;;;;;4.67;2.53;;;2.20;99.90;;;;;;4961714;28;20234;-83
2023/12/23 11:40:48;;;;;;;22.77;5.87;;;2.30;99.90;;;;;;4964693;28;20308;-82
2023/12/23 11:43:16;;;;;;;6.20;3.40;;;2.30;99.90;;;;;;4962608;28;20247;-82
2023/12/23 11:45:44;;;;;;;12.33;8.23;;;2.30;99.90;;;;;;4961628;28;20215;-83
2023/12/23 11:48:11;;;;;;;84.50;8.93;;;2.30;99.90;;;;;;4970431;28;20748;-83
2023/12/23 11:50:38;;;;;;;16.20;4.07;;;2.30;99.90;;;;;;4962052;28;20239;-82
2023/12/23 11:53:06;;;;;;;9.20;4.07;;;2.40;99.90;;;;;;4960692;28;20236;-82
2023/12/23 11:55:33;;;;;;;26.30;5.30;;;2.40;99.90;;;;;;4961962;28;20718;-82
2023/12/23 11:58:01;;;;;;;4.93;3.40;;;2.50;99.90;;;;;;4975300;28;20318;-82
2023/12/23 12:00:30;;;;;;;16.20;3.53;;;2.50;99.90;;;;;;4963613;28;20604;-82
2023/12/23 12:02:57;;;;;;;10.27;3.00;;;2.50;99.90;;;;;;4959834;28;21054;-83
2023/12/23 12:05:25;;;;;;;6.90;2.90;;;2.60;99.90;;;;;;4964229;28;20240;-84
2023/12/23 12:07:52;;;;;;;5.33;2.90;;;2.60;99.90;;;;;;4958634;28;20671;-83
2023/12/23 12:10:19;;;;;;;3.83;2.70;;;2.60;99.90;;;;;;4963230;28;20244;-84
2023/12/23 12:12:45;;;;;;;5.43;2.53;;;2.60;99.90;;;;;;4963169;28;20252;-84
2023/12/23 12:15:12;;;;;;;22.93;3.63;;;2.60;99.90;;;;;;4960715;28;20254;-83
2023/12/23 12:17:40;;;;;;;2.60;2.40;;;2.70;99.90;;;;;;4992528;28;20260;-83
2023/12/23 12:20:08;;;;;;;5.07;2.20;;;2.70;99.90;;;;;;4978578;28;20314;-82
2023/12/23 12:22:34;;;;;;;3.87;2.10;;;2.80;99.90;;;;;;4967006;28;20820;-83
2023/12/23 12:25:02;;;;;;;4.00;2.27;;;2.80;99.90;;;;;;4963587;28;20227;-84
2023/12/23 12:27:30;;;;;;;6.70;2.57;;;2.90;99.90;;;;;;4960166;28;20266;-83
2023/12/23 12:29:56;;;;;;;17.23;3.03;;;2.90;99.90;;;;;;4964940;28;20238;-84
2023/12/23 12:32:23;;;;;;;34.50;3.73;;;2.90;99.90;;;;;;4963424;28;21019;-83
2023/12/23 12:35:01;;;;;;;7.90;2.43;;;2.90;99.90;;;;;;4964702;28;20236;-84
2023/12/23 12:37:28;;;;;;;4.67;2.70;;;3.00;99.90;;;;;;4963397;28;20323;-83
2023/12/23 12:39:55;;;;;;;3.43;2.47;;;3.00;99.90;;;;;;4963277;28;20255;-83
2023/12/23 12:42:24;;;;;;;32.03;4.33;;;3.10;99.90;;;;;;4954079;28;20300;-83
2023/12/23 12:44:52;;;;;;;6.27;3.30;;;3.10;99.90;;;;;;4963461;28;20244;-83
2023/12/23 12:47:20;;;;;;;7.60;4.17;;;3.20;99.90;;;;;;4960971;28;20232;-84
2023/12/23 12:49:47;;;;;;;15.27;4.13;;;3.20;99.90;;;;;;4960707;28;20297;-83
2023/12/23 12:52:17;;;;;;;4.63;2.27;;;3.20;99.90;;;;;;4965434;28;20319;-83